Ponte Vedra, Florida
Current Conditions -  °F | °C
As of 9:53 PM on Wednesday 22 Oct 2014 (Local Time) from KCRG Reporting Station
Clear Clear  
Wind Chill: 63°   Ceiling: Unl
Heat Index: 63°   Visibility: 10mi
Dew Point: 53°   Wind: 3mph
Humidity: 70%   Direction: 10°N
Pressure: 30.05"   Gusts: NA
Location:  30.16°N, 81.42°W
Report Text: KCRG 230153Z 01003KT 10SM CLR 17/12 A3005 RMK AO2 SLP175 T01720117
Loading
Personal Weather Stations






























Interactive Weather Map
Tropical Storm Tracking
New forecast layout! Learn more

10-Day Weather Forecast

Advertisements
Track Severe Weather on mobile